Disclaimer

Please do not use the information listed here in-flight or in-navigation, as they are not provided to us by the airports but are provided by volunteers, so they might be outdated.

Search


Regions


Airport information page

Radio informations:
MOCHIS TWR/APP - 118.8 MHz

Airport informations:
Latitude: 25° 41' 06.70" N
Longitude: 109° 04' 50.90" W
Elevation: 16 feet - 5 meters
Operating hours: Remarks
Operating agency: Civil government, landing fees and diplomatic clearance may be required
Timezone: UTC-7(-6DT) - First Sunday in April to the last Saturday in October
Fuel: 100/130 octane gasoline, leaded, MIL-L-5572F (GREEN)

Runway information:
09/27 - 6562 x 148 feet< - >2000 x 45 meters

Recent METARs:
MMLM 162242Z 29012KT 10SM BKN220 26/11 A2994 RMK 8/008 HZY
MMLM 162242Z 29012KT 10SM BKN220 26/11 A2994 RMK 8/008 HZY
MMLM 162340Z 30008KT 10SM OVC220 25/12 A2996 RMK SLP146 8/007 HZY

Airport on the map: